HEAR

El Arish International Airport

El Arish, Egypt
METAR HEAR 152200Z 00000KT CAVOK 25/21 Q1008 NOSIG
Observed Flight Rules
Aug-15 @ 22:00 UTC (28 minutes ago) Visual Flight Rules
Visibility Clouds
10,000+ meters
  • Clear skies
Temperatures Readings
Current 25°C / 77°F
Dewpoint 21°C / 70°F
Humidity 79%
Altimeter 29.76" Hg
Pressure 1008 hPa
Elevation 32
METAR HEAR 152200Z 00000KT CAVOK 25/21 Q1008 NOSIG
Observed Flight Rules
Aug-15 @ 22:00 UTC
(28 minutes ago)
VFR
Clouds
  • Clear skies
Temperature Dewpoint
25°C / 77°F 21°C / 70°F
Humidity Altimeter Pressure
79% 29.76" Hg 1008 hPa